sensor_id;sensor_type;location;lat;lon;timestamp;temperature;humidity
53776;DHT22;44276;49.534;6.378;2022-08-19T00:01:57;16.80;99.90
53776;DHT22;44276;49.534;6.378;2022-08-19T00:04:29;16.80;99.90
53776;DHT22;44276;49.534;6.378;2022-08-19T00:07:02;16.70;99.90
53776;DHT22;44276;49.534;6.378;2022-08-19T00:09:31;16.80;99.90
53776;DHT22;44276;49.534;6.378;2022-08-19T00:11:59;16.70;99.90
53776;DHT22;44276;49.534;6.378;2022-08-19T00:14:29;16.70;99.90
53776;DHT22;44276;49.534;6.378;2022-08-19T00:16:59;16.70;99.90
53776;DHT22;44276;49.534;6.378;2022-08-19T00:19:29;16.80;99.90
53776;DHT22;44276;49.534;6.378;2022-08-19T00:21:58;16.80;99.90
53776;DHT22;44276;49.534;6.378;2022-08-19T00:24:27;16.80;99.90
53776;DHT22;44276;49.534;6.378;2022-08-19T00:26:56;16.70;99.90
53776;DHT22;44276;49.534;6.378;2022-08-19T00:29:44;16.70;99.90
53776;DHT22;44276;49.534;6.378;2022-08-19T00:32:18;16.70;99.90
53776;DHT22;44276;49.534;6.378;2022-08-19T00:34:49;16.70;99.90
53776;DHT22;44276;49.534;6.378;2022-08-19T00:37:22;16.60;99.90
53776;DHT22;44276;49.534;6.378;2022-08-19T00:39:53;16.60;99.90
53776;DHT22;44276;49.534;6.378;2022-08-19T00:42:22;16.50;99.90
53776;DHT22;44276;49.534;6.378;2022-08-19T00:44:51;16.50;99.90
53776;DHT22;44276;49.534;6.378;2022-08-19T00:47:19;16.50;99.90
53776;DHT22;44276;49.534;6.378;2022-08-19T00:49:52;16.50;99.90
53776;DHT22;44276;49.534;6.378;2022-08-19T00:52:26;16.50;99.90
53776;DHT22;44276;49.534;6.378;2022-08-19T00:54:58;16.50;99.90
53776;DHT22;44276;49.534;6.378;2022-08-19T00:57:30;16.50;99.90
53776;DHT22;44276;49.534;6.378;2022-08-19T01:00:05;16.40;99.90
53776;DHT22;44276;49.534;6.378;2022-08-19T01:02:37;16.40;99.90
53776;DHT22;44276;49.534;6.378;2022-08-19T01:05:10;16.30;99.90
53776;DHT22;44276;49.534;6.378;2022-08-19T01:07:42;16.20;99.90
53776;DHT22;44276;49.534;6.378;2022-08-19T01:10:12;16.20;99.90
53776;DHT22;44276;49.534;6.378;2022-08-19T01:12:43;16.10;99.90
53776;DHT22;44276;49.534;6.378;2022-08-19T01:15:15;16.00;99.90
53776;DHT22;44276;49.534;6.378;2022-08-19T01:17:46;16.00;99.90
53776;DHT22;44276;49.534;6.378;2022-08-19T01:20:19;15.90;99.90
53776;DHT22;44276;49.534;6.378;2022-08-19T01:22:52;15.90;99.90
53776;DHT22;44276;49.534;6.378;2022-08-19T01:25:24;15.90;99.90
53776;DHT22;44276;49.534;6.378;2022-08-19T01:27:55;15.90;99.90
53776;DHT22;44276;49.534;6.378;2022-08-19T01:30:36;15.80;99.90
53776;DHT22;44276;49.534;6.378;2022-08-19T01:33:09;15.80;99.90
53776;DHT22;44276;49.534;6.378;2022-08-19T01:35:38;15.70;99.90
53776;DHT22;44276;49.534;6.378;2022-08-19T01:38:10;15.60;99.90
53776;DHT22;44276;49.534;6.378;2022-08-19T01:40:50;15.70;99.90
53776;DHT22;44276;49.534;6.378;2022-08-19T01:43:18;15.70;99.90
53776;DHT22;44276;49.534;6.378;2022-08-19T01:45:47;15.70;99.90
53776;DHT22;44276;49.534;6.378;2022-08-19T01:48:15;15.60;99.90
53776;DHT22;44276;49.534;6.378;2022-08-19T01:50:43;15.50;99.90
53776;DHT22;44276;49.534;6.378;2022-08-19T01:53:13;15.50;99.90
53776;DHT22;44276;49.534;6.378;2022-08-19T01:55:42;15.60;99.90
53776;DHT22;44276;49.534;6.378;2022-08-19T01:58:18;15.60;99.90
53776;DHT22;44276;49.534;6.378;2022-08-19T02:00:48;15.60;99.90
53776;DHT22;44276;49.534;6.378;2022-08-19T02:03:17;15.60;99.90
53776;DHT22;44276;49.534;6.378;2022-08-19T02:05:45;15.50;99.90
53776;DHT22;44276;49.534;6.378;2022-08-19T02:08:14;15.50;99.90
53776;DHT22;44276;49.534;6.378;2022-08-19T02:10:43;15.40;99.90
53776;DHT22;44276;49.534;6.378;2022-08-19T02:13:12;15.50;99.90
53776;DHT22;44276;49.534;6.378;2022-08-19T02:15:46;15.40;99.90
53776;DHT22;44276;49.534;6.378;2022-08-19T02:18:14;15.50;99.90
53776;DHT22;44276;49.534;6.378;2022-08-19T02:20:44;15.40;99.90
53776;DHT22;44276;49.534;6.378;2022-08-19T02:23:15;15.40;99.90
53776;DHT22;44276;49.534;6.378;2022-08-19T02:25:46;15.30;99.90
53776;DHT22;44276;49.534;6.378;2022-08-19T02:28:15;15.30;99.90
53776;DHT22;44276;49.534;6.378;2022-08-19T02:30:45;15.30;99.90
53776;DHT22;44276;49.534;6.378;2022-08-19T02:33:14;15.40;99.90
53776;DHT22;44276;49.534;6.378;2022-08-19T02:35:44;15.30;99.90
53776;DHT22;44276;49.534;6.378;2022-08-19T02:38:16;15.40;99.90
53776;DHT22;44276;49.534;6.378;2022-08-19T02:40:55;15.30;99.90
53776;DHT22;44276;49.534;6.378;2022-08-19T02:43:26;15.20;99.90
53776;DHT22;44276;49.534;6.378;2022-08-19T02:46:00;15.20;99.90
53776;DHT22;44276;49.534;6.378;2022-08-19T02:48:30;15.20;99.90
53776;DHT22;44276;49.534;6.378;2022-08-19T02:50:59;15.00;99.90
53776;DHT22;44276;49.534;6.378;2022-08-19T02:53:29;15.00;99.90
53776;DHT22;44276;49.534;6.378;2022-08-19T02:55:57;15.00;99.90
53776;DHT22;44276;49.534;6.378;2022-08-19T02:58:25;14.90;99.90
53776;DHT22;44276;49.534;6.378;2022-08-19T03:00:55;14.90;99.90
53776;DHT22;44276;49.534;6.378;2022-08-19T03:03:25;14.90;99.90
53776;DHT22;44276;49.534;6.378;2022-08-19T03:06:06;14.90;99.90
53776;DHT22;44276;49.534;6.378;2022-08-19T03:08:39;14.90;99.90
53776;DHT22;44276;49.534;6.378;2022-08-19T03:11:13;14.90;99.90
53776;DHT22;44276;49.534;6.378;2022-08-19T03:13:42;14.90;99.90
53776;DHT22;44276;49.534;6.378;2022-08-19T03:16:11;14.90;99.90
53776;DHT22;44276;49.534;6.378;2022-08-19T03:18:39;15.00;99.90
53776;DHT22;44276;49.534;6.378;2022-08-19T03:21:08;15.00;99.90
53776;DHT22;44276;49.534;6.378;2022-08-19T03:23:39;15.00;99.90
53776;DHT22;44276;49.534;6.378;2022-08-19T03:26:07;14.90;99.90
53776;DHT22;44276;49.534;6.378;2022-08-19T03:28:43;14.90;99.90
53776;DHT22;44276;49.534;6.378;2022-08-19T03:31:24;14.90;99.90
53776;DHT22;44276;49.534;6.378;2022-08-19T03:34:16;14.90;99.90
53776;DHT22;44276;49.534;6.378;2022-08-19T03:36:46;14.90;99.90
53776;DHT22;44276;49.534;6.378;2022-08-19T03:39:16;14.90;99.90
53776;DHT22;44276;49.534;6.378;2022-08-19T03:41:46;14.90;99.90
53776;DHT22;44276;49.534;6.378;2022-08-19T03:44:36;14.90;99.90
53776;DHT22;44276;49.534;6.378;2022-08-19T03:47:05;15.00;99.90
53776;DHT22;44276;49.534;6.378;2022-08-19T03:49:34;15.00;99.90
53776;DHT22;44276;49.534;6.378;2022-08-19T03:52:04;15.00;99.90
53776;DHT22;44276;49.534;6.378;2022-08-19T03:54:35;15.00;99.90
53776;DHT22;44276;49.534;6.378;2022-08-19T03:57:05;14.90;99.90
53776;DHT22;44276;49.534;6.378;2022-08-19T03:59:36;14.90;99.90
53776;DHT22;44276;49.534;6.378;2022-08-19T04:02:07;14.80;99.90
53776;DHT22;44276;49.534;6.378;2022-08-19T04:04:39;14.70;99.90
53776;DHT22;44276;49.534;6.378;2022-08-19T04:07:12;14.70;99.90
53776;DHT22;44276;49.534;6.378;2022-08-19T04:09:44;14.70;99.90
53776;DHT22;44276;49.534;6.378;2022-08-19T04:12:12;14.70;99.90
53776;DHT22;44276;49.534;6.378;2022-08-19T04:14:41;14.70;99.90
53776;DHT22;44276;49.534;6.378;2022-08-19T04:17:09;14.70;99.90
53776;DHT22;44276;49.534;6.378;2022-08-19T04:19:38;14.70;99.90
53776;DHT22;44276;49.534;6.378;2022-08-19T04:22:07;14.60;99.90
53776;DHT22;44276;49.534;6.378;2022-08-19T04:24:37;14.60;99.90
53776;DHT22;44276;49.534;6.378;2022-08-19T04:27:07;14.60;99.90
53776;DHT22;44276;49.534;6.378;2022-08-19T04:29:35;14.70;99.90
53776;DHT22;44276;49.534;6.378;2022-08-19T04:32:06;14.70;99.90
53776;DHT22;44276;49.534;6.378;2022-08-19T04:34:36;14.60;99.90
53776;DHT22;44276;49.534;6.378;2022-08-19T04:37:25;14.60;99.90
53776;DHT22;44276;49.534;6.378;2022-08-19T04:40:03;14.60;99.90
53776;DHT22;44276;49.534;6.378;2022-08-19T04:42:52;14.50;99.90
53776;DHT22;44276;49.534;6.378;2022-08-19T04:45:21;14.50;99.90
53776;DHT22;44276;49.534;6.378;2022-08-19T04:47:49;14.50;99.90
53776;DHT22;44276;49.534;6.378;2022-08-19T04:50:44;14.50;99.90
53776;DHT22;44276;49.534;6.378;2022-08-19T04:53:13;14.60;99.90
53776;DHT22;44276;49.534;6.378;2022-08-19T04:55:42;14.70;99.90
53776;DHT22;44276;49.534;6.378;2022-08-19T04:58:12;14.80;99.90
53776;DHT22;44276;49.534;6.378;2022-08-19T05:00:41;14.90;99.90
53776;DHT22;44276;49.534;6.378;2022-08-19T05:03:10;15.00;99.90
53776;DHT22;44276;49.534;6.378;2022-08-19T05:05:39;15.10;99.90
53776;DHT22;44276;49.534;6.378;2022-08-19T05:08:11;15.20;99.90
53776;DHT22;44276;49.534;6.378;2022-08-19T05:10:41;15.40;99.90
53776;DHT22;44276;49.534;6.378;2022-08-19T05:13:11;15.60;99.90
53776;DHT22;44276;49.534;6.378;2022-08-19T05:15:39;15.70;99.90
53776;DHT22;44276;49.534;6.378;2022-08-19T05:18:08;15.90;99.90
53776;DHT22;44276;49.534;6.378;2022-08-19T05:21:01;16.10;99.90
53776;DHT22;44276;49.534;6.378;2022-08-19T05:23:50;16.30;99.90
53776;DHT22;44276;49.534;6.378;2022-08-19T05:26:19;16.70;99.90
53776;DHT22;44276;49.534;6.378;2022-08-19T05:28:49;16.90;99.90
53776;DHT22;44276;49.534;6.378;2022-08-19T05:31:21;17.20;99.90
53776;DHT22;44276;49.534;6.378;2022-08-19T05:33:49;17.30;99.90
53776;DHT22;44276;49.534;6.378;2022-08-19T05:36:17;17.40;99.90
53776;DHT22;44276;49.534;6.378;2022-08-19T05:38:46;17.60;99.90
53776;DHT22;44276;49.534;6.378;2022-08-19T05:41:16;17.80;99.90
53776;DHT22;44276;49.534;6.378;2022-08-19T05:43:44;18.20;99.90
53776;DHT22;44276;49.534;6.378;2022-08-19T05:46:18;18.40;99.90
53776;DHT22;44276;49.534;6.378;2022-08-19T05:48:53;18.80;99.90
53776;DHT22;44276;49.534;6.378;2022-08-19T05:51:23;19.10;99.90
53776;DHT22;44276;49.534;6.378;2022-08-19T05:53:54;19.40;99.90
53776;DHT22;44276;49.534;6.378;2022-08-19T05:56:23;19.50;99.90
53776;DHT22;44276;49.534;6.378;2022-08-19T05:58:51;19.70;99.90
53776;DHT22;44276;49.534;6.378;2022-08-19T06:01:22;19.80;99.90
53776;DHT22;44276;49.534;6.378;2022-08-19T06:03:50;20.10;99.90
53776;DHT22;44276;49.534;6.378;2022-08-19T06:06:19;20.20;99.90
53776;DHT22;44276;49.534;6.378;2022-08-19T06:08:47;20.30;99.90
53776;DHT22;44276;49.534;6.378;2022-08-19T06:11:21;20.10;99.90
53776;DHT22;44276;49.534;6.378;2022-08-19T06:13:53;19.90;99.90
53776;DHT22;44276;49.534;6.378;2022-08-19T06:16:27;19.80;99.90
53776;DHT22;44276;49.534;6.378;2022-08-19T06:18:57;19.70;99.90
53776;DHT22;44276;49.534;6.378;2022-08-19T06:21:28;19.90;99.90
53776;DHT22;44276;49.534;6.378;2022-08-19T06:23:58;20.10;99.90
53776;DHT22;44276;49.534;6.378;2022-08-19T06:26:26;20.50;99.90
53776;DHT22;44276;49.534;6.378;2022-08-19T06:28:55;20.90;99.90
53776;DHT22;44276;49.534;6.378;2022-08-19T06:31:29;21.50;99.90
53776;DHT22;44276;49.534;6.378;2022-08-19T06:34:01;22.10;99.90
53776;DHT22;44276;49.534;6.378;2022-08-19T06:36:33;22.70;99.90
53776;DHT22;44276;49.534;6.378;2022-08-19T06:39:06;23.60;99.90
53776;DHT22;44276;49.534;6.378;2022-08-19T06:41:39;24.30;99.90
53776;DHT22;44276;49.534;6.378;2022-08-19T06:44:17;25.10;94.30
53776;DHT22;44276;49.534;6.378;2022-08-19T06:46:48;26.00;82.50
53776;DHT22;44276;49.534;6.378;2022-08-19T06:49:20;26.70;73.70
53776;DHT22;44276;49.534;6.378;2022-08-19T06:51:49;27.20;68.90
53776;DHT22;44276;49.534;6.378;2022-08-19T06:54:18;28.00;63.80
53776;DHT22;44276;49.534;6.378;2022-08-19T06:56:47;28.40;56.80
53776;DHT22;44276;49.534;6.378;2022-08-19T06:59:17;28.60;52.10
53776;DHT22;44276;49.534;6.378;2022-08-19T07:01:49;28.70;49.80
53776;DHT22;44276;49.534;6.378;2022-08-19T07:04:21;29.40;49.30
53776;DHT22;44276;49.534;6.378;2022-08-19T07:06:57;29.80;42.20
53776;DHT22;44276;49.534;6.378;2022-08-19T07:09:45;29.10;44.30
53776;DHT22;44276;49.534;6.378;2022-08-19T07:12:26;29.70;42.10
53776;DHT22;44276;49.534;6.378;2022-08-19T07:14:57;29.50;41.10
53776;DHT22;44276;49.534;6.378;2022-08-19T07:17:27;28.70;43.30
53776;DHT22;44276;49.534;6.378;2022-08-19T07:19:56;28.30;45.10
53776;DHT22;44276;49.534;6.378;2022-08-19T07:22:32;27.80;47.30
53776;DHT22;44276;49.534;6.378;2022-08-19T07:25:02;27.30;49.70
53776;DHT22;44276;49.534;6.378;2022-08-19T07:27:31;27.50;51.20
53776;DHT22;44276;49.534;6.378;2022-08-19T07:30:00;28.20;47.30
53776;DHT22;44276;49.534;6.378;2022-08-19T07:32:30;29.00;43.70
53776;DHT22;44276;49.534;6.378;2022-08-19T07:34:58;29.00;43.80
53776;DHT22;44276;49.534;6.378;2022-08-19T07:37:29;29.30;42.20
53776;DHT22;44276;49.534;6.378;2022-08-19T07:39:59;29.70;40.90
53776;DHT22;44276;49.534;6.378;2022-08-19T07:42:28;30.10;39.60
53776;DHT22;44276;49.534;6.378;2022-08-19T07:44:57;29.80;39.80
53776;DHT22;44276;49.534;6.378;2022-08-19T07:47:26;30.60;37.70
53776;DHT22;44276;49.534;6.378;2022-08-19T07:50:17;31.30;35.90
53776;DHT22;44276;49.534;6.378;2022-08-19T07:52:47;32.10;35.20
53776;DHT22;44276;49.534;6.378;2022-08-19T07:55:21;32.20;32.60
53776;DHT22;44276;49.534;6.378;2022-08-19T07:58:10;32.70;31.60
53776;DHT22;44276;49.534;6.378;2022-08-19T08:00:41;34.10;30.00
53776;DHT22;44276;49.534;6.378;2022-08-19T08:03:10;33.40;30.40
53776;DHT22;44276;49.534;6.378;2022-08-19T08:05:40;33.40;30.10
53776;DHT22;44276;49.534;6.378;2022-08-19T08:08:26;34.20;29.20
53776;DHT22;44276;49.534;6.378;2022-08-19T08:11:15;33.50;29.90
53776;DHT22;44276;49.534;6.378;2022-08-19T08:13:47;33.60;29.70
53776;DHT22;44276;49.534;6.378;2022-08-19T08:16:30;33.50;29.50
53776;DHT22;44276;49.534;6.378;2022-08-19T08:19:06;33.50;29.60
53776;DHT22;44276;49.534;6.378;2022-08-19T08:21:53;32.20;31.10
53776;DHT22;44276;49.534;6.378;2022-08-19T08:24:23;32.40;31.50
53776;DHT22;44276;49.534;6.378;2022-08-19T08:26:55;32.80;30.60
53776;DHT22;44276;49.534;6.378;2022-08-19T08:29:25;32.60;30.50
53776;DHT22;44276;49.534;6.378;2022-08-19T08:32:01;33.10;29.70
53776;DHT22;44276;49.534;6.378;2022-08-19T08:34:40;33.20;29.50
53776;DHT22;44276;49.534;6.378;2022-08-19T08:37:10;32.90;29.50
53776;DHT22;44276;49.534;6.378;2022-08-19T08:39:41;32.60;30.00
53776;DHT22;44276;49.534;6.378;2022-08-19T08:42:17;31.90;30.70
53776;DHT22;44276;49.534;6.378;2022-08-19T08:44:58;32.00;31.20
53776;DHT22;44276;49.534;6.378;2022-08-19T08:47:31;32.80;30.00
53776;DHT22;44276;49.534;6.378;2022-08-19T08:50:16;33.60;28.80
53776;DHT22;44276;49.534;6.378;2022-08-19T08:52:56;33.30;29.00
53776;DHT22;44276;49.534;6.378;2022-08-19T08:55:28;33.50;28.90
53776;DHT22;44276;49.534;6.378;2022-08-19T08:58:05;32.60;30.00
53776;DHT22;44276;49.534;6.378;2022-08-19T09:00:38;32.00;31.10
53776;DHT22;44276;49.534;6.378;2022-08-19T09:03:15;31.70;31.60
53776;DHT22;44276;49.534;6.378;2022-08-19T09:05:56;32.30;31.10
53776;DHT22;44276;49.534;6.378;2022-08-19T09:08:39;32.00;31.40
53776;DHT22;44276;49.534;6.378;2022-08-19T09:11:18;31.60;32.10
53776;DHT22;44276;49.534;6.378;2022-08-19T09:14:14;31.30;32.40
53776;DHT22;44276;49.534;6.378;2022-08-19T09:17:15;31.20;32.90
53776;DHT22;44276;49.534;6.378;2022-08-19T09:19:53;31.20;33.00
53776;DHT22;44276;49.534;6.378;2022-08-19T09:22:23;32.00;31.80
53776;DHT22;44276;49.534;6.378;2022-08-19T09:24:55;32.90;29.90
53776;DHT22;44276;49.534;6.378;2022-08-19T09:27:25;33.80;28.80
53776;DHT22;44276;49.534;6.378;2022-08-19T09:30:11;34.30;27.90
53776;DHT22;44276;49.534;6.378;2022-08-19T09:32:43;34.90;27.30
53776;DHT22;44276;49.534;6.378;2022-08-19T09:35:12;34.80;27.30
53776;DHT22;44276;49.534;6.378;2022-08-19T09:37:42;35.60;26.50
53776;DHT22;44276;49.534;6.378;2022-08-19T09:40:12;35.60;25.70
53776;DHT22;44276;49.534;6.378;2022-08-19T09:42:41;35.20;25.60
53776;DHT22;44276;49.534;6.378;2022-08-19T09:45:18;34.60;25.90
53776;DHT22;44276;49.534;6.378;2022-08-19T09:47:49;33.70;27.30
53776;DHT22;44276;49.534;6.378;2022-08-19T09:50:22;34.20;26.20
53776;DHT22;44276;49.534;6.378;2022-08-19T09:52:51;34.80;25.60
53776;DHT22;44276;49.534;6.378;2022-08-19T09:55:25;35.10;24.80
53776;DHT22;44276;49.534;6.378;2022-08-19T09:57:59;34.30;24.50
53776;DHT22;44276;49.534;6.378;2022-08-19T10:00:29;32.90;26.80
53776;DHT22;44276;49.534;6.378;2022-08-19T10:02:58;32.00;27.60
53776;DHT22;44276;49.534;6.378;2022-08-19T10:05:27;32.40;27.70
53776;DHT22;44276;49.534;6.378;2022-08-19T10:08:15;33.50;26.10
53776;DHT22;44276;49.534;6.378;2022-08-19T10:10:48;34.60;24.30
53776;DHT22;44276;49.534;6.378;2022-08-19T10:13:19;34.40;24.70
53776;DHT22;44276;49.534;6.378;2022-08-19T10:15:52;32.90;26.70
53776;DHT22;44276;49.534;6.378;2022-08-19T10:18:24;31.20;29.30
53776;DHT22;44276;49.534;6.378;2022-08-19T10:21:03;30.00;31.80
53776;DHT22;44276;49.534;6.378;2022-08-19T10:23:39;28.90;34.00
53776;DHT22;44276;49.534;6.378;2022-08-19T10:26:15;28.50;34.90
53776;DHT22;44276;49.534;6.378;2022-08-19T10:28:44;28.90;34.10
53776;DHT22;44276;49.534;6.378;2022-08-19T10:31:18;30.30;30.50
53776;DHT22;44276;49.534;6.378;2022-08-19T10:34:08;31.90;28.40
53776;DHT22;44276;49.534;6.378;2022-08-19T10:36:52;33.80;24.90
53776;DHT22;44276;49.534;6.378;2022-08-19T10:39:27;34.30;24.30
53776;DHT22;44276;49.534;6.378;2022-08-19T10:42:10;34.00;24.90
53776;DHT22;44276;49.534;6.378;2022-08-19T10:44:40;32.10;27.20
53776;DHT22;44276;49.534;6.378;2022-08-19T10:47:09;30.90;29.00
53776;DHT22;44276;49.534;6.378;2022-08-19T10:49:52;29.80;31.00
53776;DHT22;44276;49.534;6.378;2022-08-19T10:52:39;29.00;33.10
53776;DHT22;44276;49.534;6.378;2022-08-19T10:55:17;28.80;34.30
53776;DHT22;44276;49.534;6.378;2022-08-19T10:58:10;29.60;32.40
53776;DHT22;44276;49.534;6.378;2022-08-19T11:00:40;30.80;30.30
53776;DHT22;44276;49.534;6.378;2022-08-19T11:03:09;30.40;30.50
53776;DHT22;44276;49.534;6.378;2022-08-19T11:05:37;29.60;29.90
53776;DHT22;44276;49.534;6.378;2022-08-19T11:08:07;28.80;31.90
53776;DHT22;44276;49.534;6.378;2022-08-19T11:10:50;29.00;32.00
53776;DHT22;44276;49.534;6.378;2022-08-19T11:13:27;29.30;31.90
53776;DHT22;44276;49.534;6.378;2022-08-19T11:15:59;30.50;29.90
53776;DHT22;44276;49.534;6.378;2022-08-19T11:18:34;32.20;27.70
53776;DHT22;44276;49.534;6.378;2022-08-19T11:21:06;32.90;26.70
53776;DHT22;44276;49.534;6.378;2022-08-19T11:23:40;33.10;26.40
53776;DHT22;44276;49.534;6.378;2022-08-19T11:26:09;33.50;24.60
53776;DHT22;44276;49.534;6.378;2022-08-19T11:28:38;32.80;25.40
53776;DHT22;44276;49.534;6.378;2022-08-19T11:31:10;32.80;25.20
53776;DHT22;44276;49.534;6.378;2022-08-19T11:33:39;32.40;26.40
53776;DHT22;44276;49.534;6.378;2022-08-19T11:36:13;31.70;26.30
53776;DHT22;44276;49.534;6.378;2022-08-19T11:38:43;32.10;25.70
53776;DHT22;44276;49.534;6.378;2022-08-19T11:41:12;33.30;24.90
53776;DHT22;44276;49.534;6.378;2022-08-19T11:43:41;33.90;24.40
53776;DHT22;44276;49.534;6.378;2022-08-19T11:46:11;34.30;22.80
53776;DHT22;44276;49.534;6.378;2022-08-19T11:48:41;34.60;22.80
53776;DHT22;44276;49.534;6.378;2022-08-19T11:51:11;34.70;22.50
53776;DHT22;44276;49.534;6.378;2022-08-19T11:53:42;33.90;24.30
53776;DHT22;44276;49.534;6.378;2022-08-19T11:56:11;33.60;24.30
53776;DHT22;44276;49.534;6.378;2022-08-19T11:58:41;33.30;24.30
53776;DHT22;44276;49.534;6.378;2022-08-19T12:01:11;33.00;24.90
53776;DHT22;44276;49.534;6.378;2022-08-19T12:03:42;33.00;24.60
53776;DHT22;44276;49.534;6.378;2022-08-19T12:06:14;33.20;23.30
53776;DHT22;44276;49.534;6.378;2022-08-19T12:08:45;33.30;22.80
53776;DHT22;44276;49.534;6.378;2022-08-19T12:11:14;33.30;23.00
53776;DHT22;44276;49.534;6.378;2022-08-19T12:13:44;32.70;24.00
53776;DHT22;44276;49.534;6.378;2022-08-19T12:16:15;33.30;23.00
53776;DHT22;44276;49.534;6.378;2022-08-19T12:18:45;33.60;21.90
53776;DHT22;44276;49.534;6.378;2022-08-19T12:21:15;33.40;22.20
53776;DHT22;44276;49.534;6.378;2022-08-19T12:23:48;33.30;22.00
53776;DHT22;44276;49.534;6.378;2022-08-19T12:26:21;33.70;22.10
53776;DHT22;44276;49.534;6.378;2022-08-19T12:28:52;33.80;21.40
53776;DHT22;44276;49.534;6.378;2022-08-19T12:31:21;33.80;21.30
53776;DHT22;44276;49.534;6.378;2022-08-19T12:33:49;34.40;21.30
53776;DHT22;44276;49.534;6.378;2022-08-19T12:36:18;35.10;20.90
53776;DHT22;44276;49.534;6.378;2022-08-19T12:38:48;35.40;20.90
53776;DHT22;44276;49.534;6.378;2022-08-19T12:41:17;35.10;21.40
53776;DHT22;44276;49.534;6.378;2022-08-19T12:43:48;35.70;20.30
53776;DHT22;44276;49.534;6.378;2022-08-19T12:46:19;36.00;17.50
53776;DHT22;44276;49.534;6.378;2022-08-19T12:48:49;36.00;16.70
53776;DHT22;44276;49.534;6.378;2022-08-19T12:51:21;35.50;16.80
53776;DHT22;44276;49.534;6.378;2022-08-19T12:53:49;34.80;17.60
53776;DHT22;44276;49.534;6.378;2022-08-19T12:56:17;34.60;17.90
53776;DHT22;44276;49.534;6.378;2022-08-19T12:58:49;34.50;18.40
53776;DHT22;44276;49.534;6.378;2022-08-19T13:01:20;34.30;18.70
53776;DHT22;44276;49.534;6.378;2022-08-19T13:03:50;34.10;18.90
53776;DHT22;44276;49.534;6.378;2022-08-19T13:06:19;34.00;19.10
53776;DHT22;44276;49.534;6.378;2022-08-19T13:08:48;33.80;18.80
53776;DHT22;44276;49.534;6.378;2022-08-19T13:11:17;33.70;18.80
53776;DHT22;44276;49.534;6.378;2022-08-19T13:13:48;33.80;20.30
53776;DHT22;44276;49.534;6.378;2022-08-19T13:16:20;33.40;20.50
53776;DHT22;44276;49.534;6.378;2022-08-19T13:18:48;33.50;20.60
53776;DHT22;44276;49.534;6.378;2022-08-19T13:21:20;33.70;21.00
53776;DHT22;44276;49.534;6.378;2022-08-19T13:23:49;33.80;21.90
53776;DHT22;44276;49.534;6.378;2022-08-19T13:26:19;34.20;21.50
53776;DHT22;44276;49.534;6.378;2022-08-19T13:28:48;34.30;19.80
53776;DHT22;44276;49.534;6.378;2022-08-19T13:31:38;34.00;20.20
53776;DHT22;44276;49.534;6.378;2022-08-19T13:34:29;34.60;20.60
53776;DHT22;44276;49.534;6.378;2022-08-19T13:36:59;34.90;21.00
53776;DHT22;44276;49.534;6.378;2022-08-19T13:39:30;35.30;21.00
53776;DHT22;44276;49.534;6.378;2022-08-19T13:41:59;35.10;20.80
53776;DHT22;44276;49.534;6.378;2022-08-19T13:44:29;33.80;22.60
53776;DHT22;44276;49.534;6.378;2022-08-19T13:47:03;32.60;23.50
53776;DHT22;44276;49.534;6.378;2022-08-19T13:49:35;32.70;23.40
53776;DHT22;44276;49.534;6.378;2022-08-19T13:52:04;33.10;22.90
53776;DHT22;44276;49.534;6.378;2022-08-19T13:54:33;32.30;23.90
53776;DHT22;44276;49.534;6.378;2022-08-19T13:57:01;30.70;26.20
53776;DHT22;44276;49.534;6.378;2022-08-19T13:59:29;29.50;27.80
53776;DHT22;44276;49.534;6.378;2022-08-19T14:02:01;28.80;29.70
53776;DHT22;44276;49.534;6.378;2022-08-19T14:04:32;29.20;30.00
53776;DHT22;44276;49.534;6.378;2022-08-19T14:07:01;29.60;29.50
53776;DHT22;44276;49.534;6.378;2022-08-19T14:09:29;29.60;30.00
53776;DHT22;44276;49.534;6.378;2022-08-19T14:11:58;29.20;31.30
53776;DHT22;44276;49.534;6.378;2022-08-19T14:14:26;29.20;32.10
53776;DHT22;44276;49.534;6.378;2022-08-19T14:16:55;29.70;30.60
53776;DHT22;44276;49.534;6.378;2022-08-19T14:19:25;30.10;30.30
53776;DHT22;44276;49.534;6.378;2022-08-19T14:21:55;31.00;28.90
53776;DHT22;44276;49.534;6.378;2022-08-19T14:24:24;32.10;27.80
53776;DHT22;44276;49.534;6.378;2022-08-19T14:26:53;32.60;26.80
53776;DHT22;44276;49.534;6.378;2022-08-19T14:29:21;33.00;26.00
53776;DHT22;44276;49.534;6.378;2022-08-19T14:31:49;33.80;24.60
53776;DHT22;44276;49.534;6.378;2022-08-19T14:34:17;34.00;24.60
53776;DHT22;44276;49.534;6.378;2022-08-19T14:36:47;33.30;25.90
53776;DHT22;44276;49.534;6.378;2022-08-19T14:39:15;31.80;27.60
53776;DHT22;44276;49.534;6.378;2022-08-19T14:41:43;30.70;29.10
53776;DHT22;44276;49.534;6.378;2022-08-19T14:44:12;30.20;30.00
53776;DHT22;44276;49.534;6.378;2022-08-19T14:46:40;30.70;29.40
53776;DHT22;44276;49.534;6.378;2022-08-19T14:49:15;31.60;29.00
53776;DHT22;44276;49.534;6.378;2022-08-19T14:51:44;32.00;28.00
53776;DHT22;44276;49.534;6.378;2022-08-19T14:54:14;32.40;27.20
53776;DHT22;44276;49.534;6.378;2022-08-19T14:56:42;32.30;27.80
53776;DHT22;44276;49.534;6.378;2022-08-19T14:59:11;32.20;27.40
53776;DHT22;44276;49.534;6.378;2022-08-19T15:01:39;31.70;27.60
53776;DHT22;44276;49.534;6.378;2022-08-19T15:04:08;31.20;28.90
53776;DHT22;44276;49.534;6.378;2022-08-19T15:06:36;31.00;29.50
53776;DHT22;44276;49.534;6.378;2022-08-19T15:09:05;31.30;30.00
53776;DHT22;44276;49.534;6.378;2022-08-19T15:11:34;31.90;28.90
53776;DHT22;44276;49.534;6.378;2022-08-19T15:14:04;32.10;28.50
53776;DHT22;44276;49.534;6.378;2022-08-19T15:16:33;31.30;29.80
53776;DHT22;44276;49.534;6.378;2022-08-19T15:19:01;30.30;31.10
53776;DHT22;44276;49.534;6.378;2022-08-19T15:21:30;29.60;33.40
53776;DHT22;44276;49.534;6.378;2022-08-19T15:23:59;28.90;34.80
53776;DHT22;44276;49.534;6.378;2022-08-19T15:26:28;28.60;36.20
53776;DHT22;44276;49.534;6.378;2022-08-19T15:29:00;28.50;36.50
53776;DHT22;44276;49.534;6.378;2022-08-19T15:31:30;28.80;36.20
53776;DHT22;44276;49.534;6.378;2022-08-19T15:34:04;29.20;35.60
53776;DHT22;44276;49.534;6.378;2022-08-19T15:36:33;29.00;35.90
53776;DHT22;44276;49.534;6.378;2022-08-19T15:39:03;29.00;36.90
53776;DHT22;44276;49.534;6.378;2022-08-19T15:41:32;29.10;37.80
53776;DHT22;44276;49.534;6.378;2022-08-19T15:44:07;29.70;37.10
53776;DHT22;44276;49.534;6.378;2022-08-19T15:46:39;29.60;37.10
53776;DHT22;44276;49.534;6.378;2022-08-19T15:49:09;29.20;38.40
53776;DHT22;44276;49.534;6.378;2022-08-19T15:51:40;28.90;40.20
53776;DHT22;44276;49.534;6.378;2022-08-19T15:54:11;28.30;43.60
53776;DHT22;44276;49.534;6.378;2022-08-19T15:56:42;27.70;48.00
53776;DHT22;44276;49.534;6.378;2022-08-19T15:59:30;27.30;55.60
53776;DHT22;44276;49.534;6.378;2022-08-19T16:02:18;27.10;62.10